Time;durP1;ratioP1;P1;durP2;ratioP2;P2;SDS_P1;SDS_P2;PMS_P1;PMS_P2;Temp;Humidity;BMP_temperature;BMP_pressure;BME280_temperature;BME280_humidity;BME280_pressure;Samples;Min_cycle;Max_cycle;Signal;HPM_P1;HPM_P2
2023/01/17 00:01:38;;;;;;;6.68;2.00;;;4.90;1.00;;;;;;4991042;28;20235;-80
2023/01/17 00:12:25;;;;;;;7.10;2.60;;;4.70;1.00;;;;;;5001244;28;20243;-81
2023/01/17 00:15:00;;;;;;;7.88;2.10;;;4.70;1.00;;;;;;4999568;28;20231;-81
2023/01/17 00:17:29;;;;;;;7.57;2.35;;;4.70;1.00;;;;;;5002133;28;20247;-83
2023/01/17 01:35:05;;;;;;;6.45;2.20;;;4.20;1.00;;;;;;5005466;28;20246;-93
2023/01/17 01:38:15;;;;;;;6.30;2.10;;;4.30;1.00;;;;;;4990697;28;20252;-93
2023/01/17 01:41:11;;;;;;;6.78;2.50;;;4.30;1.00;;;;;;4920528;28;20284;-94
2023/01/17 01:44:37;;;;;;;;;;;;;;;;;;;;;
2023/01/17 01:47:20;;;;;;;7.18;2.50;;;4.30;1.00;;;;;;4994703;28;49086;-93
2023/01/17 01:50:00;;;;;;;6.75;2.10;;;4.20;1.00;;;;;;5011590;28;21352;-93
2023/01/17 01:52:33;;;;;;;6.45;2.08;;;4.20;1.00;;;;;;5014700;28;21568;-93
2023/01/17 01:55:33;;;;;;;6.60;2.33;;;4.20;1.00;;;;;;5010564;28;20227;-93
2023/01/17 01:58:36;;;;;;;7.60;2.17;;;4.20;1.00;;;;;;4999563;28;20227;-90
2023/01/17 02:01:22;;;;;;;6.63;2.20;;;4.30;1.00;;;;;;4982853;28;20243;-94
2023/01/17 02:03:57;;;;;;;6.78;2.13;;;4.30;1.00;;;;;;5020407;28;20246;-91
2023/01/17 02:06:40;;;;;;;6.03;2.22;;;4.30;1.00;;;;;;5010332;28;20242;-91
2023/01/17 02:09:31;;;;;;;6.40;2.10;;;4.40;1.00;;;;;;4998754;28;20227;-91
2023/01/17 02:12:11;;;;;;;7.05;2.63;;;4.40;1.00;;;;;;5007608;28;20273;-91
2023/01/17 02:14:38;;;;;;;9.82;2.97;;;4.40;1.00;;;;;;5006339;28;20302;-92
2023/01/17 02:17:36;;;;;;;6.43;2.20;;;4.40;1.00;;;;;;5018417;28;20227;-91
2023/01/17 02:20:45;;;;;;;9.43;2.40;;;4.40;1.00;;;;;;5018352;28;20210;-90
2023/01/17 02:23:51;;;;;;;7.57;2.20;;;4.50;1.00;;;;;;5011653;28;20325;-92
2023/01/17 02:26:55;;;;;;;6.93;2.58;;;4.50;1.00;;;;;;4994695;28;20253;-92
2023/01/17 02:29:51;;;;;;;7.40;2.22;;;4.50;1.00;;;;;;5032027;28;20226;-92
2023/01/17 02:32:38;;;;;;;8.50;2.80;;;4.50;1.00;;;;;;5012438;28;20222;-90
2023/01/17 02:35:44;;;;;;;;;;;;;;;;;;;;;
2023/01/17 02:38:36;;;;;;;;;;;;;;;;;;;;;
2023/01/17 02:41:14;;;;;;;6.20;2.22;;;4.40;1.00;;;;;;4993978;28;50924;-91
2023/01/17 02:43:49;;;;;;;6.65;2.63;;;4.50;1.00;;;;;;5023513;28;20240;-93
2023/01/17 02:46:28;;;;;;;;;;;;;;;;;;;;;
2023/01/17 02:49:29;;;;;;;7.65;2.80;;;4.50;1.00;;;;;;5014463;28;41752;-93
2023/01/17 02:52:44;;;;;;;;;;;;;;;;;;;;;
2023/01/17 02:55:42;;;;;;;7.80;2.70;;;4.60;1.00;;;;;;4952414;28;51305;-92
2023/01/17 02:58:34;;;;;;;7.07;2.60;;;4.60;1.00;;;;;;4976718;28;20235;-93
2023/01/17 03:01:37;;;;;;;7.53;2.83;;;4.70;1.00;;;;;;4998309;28;20693;-94
2023/01/17 03:04:31;;;;;;;9.25;2.92;;;4.70;1.00;;;;;;4910886;28;20247;-89
2023/01/17 03:10:29;;;;;;;;;;;;;;;;;;;;;
2023/01/17 03:13:23;;;;;;;;;;;;;;;;;;;;;
2023/01/17 03:16:09;;;;;;;;;;;;;;;;;;;;;
2023/01/17 03:18:56;;;;;;;;;;;;;;;;;;;;;
2023/01/17 03:21:32;;;;;;;6.60;2.90;;;4.80;1.00;;;;;;5017738;28;39578;-91
2023/01/17 03:24:19;;;;;;;;;;;;;;;;;;;;;
2023/01/17 03:27:19;;;;;;;;;;;;;;;;;;;;;
2023/01/17 03:30:12;;;;;;;7.35;2.47;;;4.70;1.00;;;;;;4940167;28;40074;-93
2023/01/17 03:39:25;;;;;;;6.78;2.10;;;4.70;1.00;;;;;;4894415;28;20304;-93
2023/01/17 03:45:16;;;;;;;7.82;2.30;;;4.70;1.00;;;;;;4873357;28;20256;-92
2023/01/17 03:48:05;;;;;;;;;;;;;;;;;;;;;
2023/01/17 03:50:38;;;;;;;7.38;2.53;;;4.90;1.00;;;;;;4927032;28;39861;-92
2023/01/17 03:53:12;;;;;;;6.70;2.45;;;4.90;1.00;;;;;;4955258;28;20787;-92
2023/01/17 03:55:57;;;;;;;;;;;;;;;;;;;;;
2023/01/17 03:58:26;;;;;;;7.32;2.80;;;4.90;1.00;;;;;;4996266;28;39665;-92
2023/01/17 04:01:00;;;;;;;7.57;3.67;;;4.90;1.00;;;;;;4987352;28;20233;-93
2023/01/17 04:06:28;;;;;;;6.80;2.50;;;5.00;1.00;;;;;;5000427;28;20261;-91
2023/01/17 04:09:36;;;;;;;;;;;;;;;;;;;;;
2023/01/17 04:12:16;;;;;;;6.50;2.50;;;5.10;1.00;;;;;;4989938;28;50381;-93
2023/01/17 04:14:46;;;;;;;7.88;2.60;;;5.10;1.00;;;;;;5000333;28;20226;-90
2023/01/17 04:17:48;;;;;;;7.25;2.72;;;5.10;1.00;;;;;;5010784;28;20990;-93
2023/01/17 04:20:47;;;;;;;7.00;2.10;;;5.10;1.00;;;;;;4991822;28;20769;-92
2023/01/17 04:23:47;;;;;;;8.65;2.35;;;5.10;1.00;;;;;;4952541;28;20240;-92
2023/01/17 04:26:19;;;;;;;7.38;2.42;;;5.20;1.00;;;;;;4947048;28;20228;-92
2023/01/17 04:29:24;;;;;;;6.35;1.80;;;5.20;1.00;;;;;;4920513;28;20237;-92
2023/01/17 04:32:30;;;;;;;;;;;;;;;;;;;;;
2023/01/17 04:35:01;;;;;;;5.60;1.35;;;5.30;1.00;;;;;;4831605;29;37962;-94
2023/01/17 04:37:56;;;;;;;5.60;1.20;;;5.30;1.00;;;;;;4878411;28;20315;-92
2023/01/17 04:41:06;;;;;;;5.97;2.10;;;5.30;1.00;;;;;;4860236;28;20414;-92
2023/01/17 04:43:48;;;;;;;5.20;0.98;;;5.30;1.00;;;;;;4884264;28;20691;-91
2023/01/17 04:46:24;;;;;;;5.72;1.40;;;5.30;1.00;;;;;;4893183;28;20364;-92
2023/01/17 04:49:01;;;;;;;;;;;;;;;;;;;;;
2023/01/17 04:51:30;;;;;;;5.32;1.00;;;5.30;1.00;;;;;;4957892;28;39490;-93
2023/01/17 04:54:00;;;;;;;5.70;1.77;;;5.30;1.00;;;;;;4969794;28;20984;-92
2023/01/17 04:56:32;;;;;;;5.65;0.95;;;5.40;1.00;;;;;;4989682;28;20262;-93
2023/01/17 04:59:05;;;;;;;6.28;1.60;;;5.40;1.00;;;;;;5011085;28;20315;-91
2023/01/17 05:05:28;;;;;;;5.20;1.02;;;5.50;1.00;;;;;;4903278;28;20466;-90
2023/01/17 05:10:38;;;;;;;5.40;1.13;;;5.40;1.00;;;;;;1274063;22;20515;-81
2023/01/17 05:13:06;;;;;;;6.82;1.90;;;5.30;1.00;;;;;;4998098;28;21596;-82
2023/01/17 05:15:33;;;;;;;5.47;1.15;;;5.20;1.00;;;;;;5010206;28;20239;-80
2023/01/17 05:18:07;;;;;;;5.50;1.23;;;5.10;1.00;;;;;;5000395;28;20262;-84
2023/01/17 05:20:36;;;;;;;5.35;1.10;;;5.10;1.00;;;;;;4988570;28;21158;-81
2023/01/17 05:23:06;;;;;;;6.57;1.40;;;5.10;1.00;;;;;;4998211;28;20722;-83
2023/01/17 05:25:34;;;;;;;7.15;1.65;;;5.10;1.00;;;;;;4999091;28;20239;-81
2023/01/17 05:28:18;;;;;;;5.85;1.58;;;5.10;1.00;;;;;;5003950;28;21085;-82
2023/01/17 05:30:47;;;;;;;7.05;1.80;;;5.20;1.00;;;;;;4982727;28;20978;-81
2023/01/17 05:33:17;;;;;;;5.75;1.40;;;5.20;1.00;;;;;;5005542;28;20254;-81
2023/01/17 05:35:46;;;;;;;5.60;1.30;;;5.20;1.00;;;;;;5001810;28;20242;-81
2023/01/17 05:38:16;;;;;;;5.70;1.30;;;5.20;1.00;;;;;;5016321;28;20241;-81
2023/01/17 05:40:43;;;;;;;5.78;1.50;;;5.20;1.00;;;;;;5004608;28;20226;-83
2023/01/17 05:43:16;;;;;;;5.38;1.20;;;5.10;1.00;;;;;;5000732;28;20231;-82
2023/01/17 05:45:43;;;;;;;6.18;1.60;;;5.10;1.00;;;;;;4999415;28;20257;-82
2023/01/17 05:48:22;;;;;;;6.68;1.77;;;5.10;1.00;;;;;;5007967;28;20231;-82
2023/01/17 05:50:51;;;;;;;6.70;1.75;;;5.10;1.00;;;;;;5009847;28;20233;-81
2023/01/17 05:53:20;;;;;;;5.90;1.60;;;5.10;1.00;;;;;;5015786;28;20282;-84
2023/01/17 05:55:48;;;;;;;6.10;1.90;;;5.10;1.00;;;;;;4988600;28;20663;-82
2023/01/17 05:58:17;;;;;;;6.35;2.58;;;5.10;1.00;;;;;;5005343;28;20238;-81
2023/01/17 06:00:45;;;;;;;7.30;2.35;;;5.00;1.00;;;;;;5001102;28;20443;-81
2023/01/17 06:03:16;;;;;;;7.10;2.50;;;5.00;1.00;;;;;;5003316;28;20239;-83
2023/01/17 06:05:46;;;;;;;6.05;1.67;;;5.00;1.00;;;;;;4996142;28;20250;-83
2023/01/17 06:08:15;;;;;;;6.20;1.90;;;5.00;1.00;;;;;;5016544;28;21129;-81
2023/01/17 06:10:45;;;;;;;6.30;1.90;;;5.10;1.00;;;;;;5005373;28;20241;-84
2023/01/17 06:13:19;;;;;;;7.68;2.85;;;5.10;1.00;;;;;;4992224;28;20243;-83
2023/01/17 06:18:37;;;;;;;6.75;1.70;;;5.10;1.00;;;;;;4983324;28;20211;-82
2023/01/17 06:21:07;;;;;;;6.68;2.67;;;5.10;1.00;;;;;;5006531;28;20235;-82
2023/01/17 06:24:08;;;;;;;;;;;;;;;;;;;;;
2023/01/17 06:26:36;;;;;;;6.75;2.20;;;5.10;1.00;;;;;;4983440;28;40810;-81
2023/01/17 06:31:57;;;;;;;6.63;2.03;;;5.10;1.00;;;;;;4969014;28;20262;-81
2023/01/17 06:34:27;;;;;;;6.90;2.10;;;5.10;1.00;;;;;;4992585;28;20238;-81
2023/01/17 06:36:57;;;;;;;6.93;2.60;;;5.10;1.00;;;;;;4990731;28;20238;-81
2023/01/17 06:39:28;;;;;;;7.90;2.17;;;5.10;1.00;;;;;;5004654;28;20231;-82
2023/01/17 06:42:05;;;;;;;6.00;1.90;;;5.20;1.00;;;;;;4984850;28;20235;-81
2023/01/17 06:44:47;;;;;;;12.80;6.72;;;5.20;1.00;;;;;;4990511;28;20250;-81
2023/01/17 06:47:23;;;;;;;7.00;2.33;;;5.20;1.00;;;;;;5003972;28;20246;-80
2023/01/17 06:50:04;;;;;;;7.05;2.33;;;5.20;1.00;;;;;;4984195;28;21063;-81
2023/01/17 06:52:55;;;;;;;7.80;2.10;;;5.20;1.00;;;;;;4990225;28;20249;-80
2023/01/17 06:55:28;;;;;;;6.68;2.35;;;5.30;1.00;;;;;;4997601;28;21011;-82
2023/01/17 06:58:07;;;;;;;6.45;2.40;;;5.30;1.00;;;;;;4967050;28;20243;-79
2023/01/17 07:00:36;;;;;;;6.65;2.38;;;5.20;1.00;;;;;;4986848;28;20271;-80
2023/01/17 07:03:25;;;;;;;6.30;2.22;;;5.30;1.00;;;;;;4985438;28;20246;-82
2023/01/17 07:06:27;;;;;;;7.00;2.40;;;5.30;1.00;;;;;;4969581;28;21050;-81
2023/01/17 07:09:06;;;;;;;;;;;;;;;;;;;;;
2023/01/17 07:11:38;;;;;;;6.70;2.22;;;5.30;1.00;;;;;;4936355;28;38971;-79
2023/01/17 07:14:28;;;;;;;7.40;2.35;;;5.30;1.00;;;;;;4994229;28;20243;-82
2023/01/17 07:16:58;;;;;;;6.05;1.92;;;5.20;1.00;;;;;;4975417;28;20243;-79
2023/01/17 07:19:38;;;;;;;6.75;2.25;;;5.30;1.00;;;;;;4982073;28;21006;-81
2023/01/17 07:22:16;;;;;;;6.50;2.28;;;5.20;1.00;;;;;;4980535;28;20290;-80
2023/01/17 07:24:59;;;;;;;;;;;;;;;;;;;;;
2023/01/17 07:27:36;;;;;;;6.45;2.33;;;5.30;1.00;;;;;;4979542;28;42382;-84
2023/01/17 07:30:07;;;;;;;7.00;2.10;;;5.30;1.00;;;;;;4992461;28;20240;-83
2023/01/17 07:32:46;;;;;;;6.47;2.28;;;5.30;1.00;;;;;;4983034;28;20338;-83
2023/01/17 07:35:26;;;;;;;7.38;2.55;;;5.30;1.00;;;;;;5001870;28;21062;-81
2023/01/17 07:43:59;;;;;;;;;;;;;;;;;;;;;
2023/01/17 07:46:26;;;;;;;6.38;2.28;;;5.30;1.00;;;;;;4980863;28;41219;-81
2023/01/17 07:48:56;;;;;;;8.20;2.42;;;5.20;1.00;;;;;;4966715;28;20295;-79
2023/01/17 07:51:36;;;;;;;7.05;2.53;;;5.20;1.00;;;;;;4986536;28;20238;-81
2023/01/17 07:54:08;;;;;;;5.88;1.77;;;5.20;1.00;;;;;;4992484;28;20235;-80
2023/01/17 07:56:38;;;;;;;7.15;2.10;;;5.20;1.00;;;;;;4970462;28;20742;-81
2023/01/17 07:59:27;;;;;;;6.40;2.00;;;5.10;1.00;;;;;;4985554;28;20283;-81
2023/01/17 08:02:05;;;;;;;6.65;2.45;;;5.10;1.00;;;;;;4973414;28;20268;-81
2023/01/17 08:04:42;;;;;;;7.07;2.20;;;5.10;1.00;;;;;;4999366;28;20239;-81
2023/01/17 08:07:17;;;;;;;7.03;2.45;;;5.30;1.00;;;;;;4986437;28;20991;-82
2023/01/17 08:09:56;;;;;;;6.78;2.30;;;5.30;1.00;;;;;;4973211;28;20719;-82
2023/01/17 08:12:25;;;;;;;6.53;2.05;;;5.40;1.00;;;;;;4995854;28;20313;-81
2023/01/17 08:14:53;;;;;;;6.20;1.80;;;5.40;1.00;;;;;;5012198;28;20367;-83
2023/01/17 08:17:21;;;;;;;6.57;2.33;;;5.50;1.00;;;;;;4999476;28;20238;-81
2023/01/17 08:19:50;;;;;;;6.07;1.90;;;5.60;1.00;;;;;;5015474;28;20325;-80
2023/01/17 08:22:18;;;;;;;12.20;2.15;;;5.60;1.00;;;;;;5014114;28;20298;-83
2023/01/17 08:24:47;;;;;;;6.70;2.10;;;5.70;1.00;;;;;;4987452;28;20243;-81
2023/01/17 08:27:17;;;;;;;6.40;2.20;;;5.70;1.00;;;;;;4978256;28;20239;-82
2023/01/17 08:29:54;;;;;;;6.38;2.30;;;5.70;1.00;;;;;;5001472;28;20317;-83
2023/01/17 08:32:27;;;;;;;5.90;1.85;;;5.70;1.00;;;;;;4995315;28;20262;-82
2023/01/17 08:34:59;;;;;;;7.40;2.40;;;5.60;1.00;;;;;;4978788;28;20243;-82
2023/01/17 08:37:26;;;;;;;6.32;1.80;;;5.60;1.00;;;;;;4986855;28;20236;-83
2023/01/17 08:40:07;;;;;;;6.47;2.38;;;5.60;1.00;;;;;;4955889;28;20339;-82
2023/01/17 08:42:38;;;;;;;6.50;2.40;;;5.70;1.00;;;;;;4979564;28;20244;-82
2023/01/17 08:45:09;;;;;;;6.25;1.80;;;5.70;1.00;;;;;;4999014;28;20243;-83
2023/01/17 08:47:36;;;;;;;6.07;1.75;;;5.70;1.00;;;;;;5012811;28;20235;-82
2023/01/17 08:50:05;;;;;;;6.47;2.67;;;5.70;1.00;;;;;;4997949;28;20243;-80
2023/01/17 08:52:33;;;;;;;7.75;2.00;;;5.70;1.00;;;;;;4995644;28;20307;-82
2023/01/17 08:55:00;;;;;;;7.30;1.52;;;5.70;1.00;;;;;;4999024;28;21138;-81
2023/01/17 08:57:27;;;;;;;6.30;1.70;;;5.70;1.00;;;;;;5014039;28;20450;-82
2023/01/17 08:59:56;;;;;;;6.55;1.60;;;5.60;1.00;;;;;;5011477;28;20245;-82
2023/01/17 09:02:24;;;;;;;7.50;2.20;;;5.60;1.00;;;;;;5019083;28;20250;-82
2023/01/17 09:04:52;;;;;;;7.25;1.80;;;5.60;1.00;;;;;;5012173;28;20287;-83
2023/01/17 09:07:20;;;;;;;6.63;1.75;;;5.60;1.00;;;;;;5013074;28;20210;-83
2023/01/17 09:09:47;;;;;;;8.00;2.20;;;5.60;1.00;;;;;;5009179;28;20259;-83
2023/01/17 09:12:14;;;;;;;8.65;2.15;;;5.70;1.00;;;;;;5002955;28;20223;-83
2023/01/17 09:14:42;;;;;;;5.60;1.42;;;5.70;1.00;;;;;;5004861;28;20696;-83
2023/01/17 09:17:09;;;;;;;6.82;1.52;;;5.80;1.00;;;;;;5019267;28;20334;-82
2023/01/17 09:19:40;;;;;;;6.47;1.88;;;5.80;1.00;;;;;;5018052;28;20331;-82
2023/01/17 09:22:08;;;;;;;6.30;1.67;;;5.80;1.00;;;;;;5008916;28;20242;-83
2023/01/17 09:24:38;;;;;;;6.45;2.42;;;5.90;1.00;;;;;;5015426;28;20234;-84
2023/01/17 09:27:06;;;;;;;6.30;1.63;;;6.00;1.00;;;;;;5011407;28;20223;-83
2023/01/17 09:29:33;;;;;;;6.70;1.92;;;6.00;1.00;;;;;;5011056;28;20269;-84
2023/01/17 09:32:00;;;;;;;7.20;1.45;;;6.00;1.00;;;;;;5013979;28;20378;-82
2023/01/17 09:34:29;;;;;;;5.60;1.13;;;6.00;1.00;;;;;;5002667;28;20235;-82
2023/01/17 09:36:57;;;;;;;5.70;1.60;;;6.00;1.00;;;;;;5011056;28;20241;-85
2023/01/17 09:39:24;;;;;;;6.78;1.50;;;6.00;1.00;;;;;;5014099;28;20230;-84
2023/01/17 09:41:59;;;;;;;5.65;1.15;;;6.20;1.00;;;;;;5014817;28;20230;-82
2023/01/17 09:44:31;;;;;;;7.00;1.05;;;6.20;1.00;;;;;;5015589;28;20328;-82
2023/01/17 09:47:14;;;;;;;6.53;1.50;;;6.10;1.00;;;;;;5002365;28;20243;-82
2023/01/17 09:49:47;;;;;;;7.13;1.90;;;6.20;1.00;;;;;;4999480;28;20238;-82
2023/01/17 09:52:22;;;;;;;5.40;1.20;;;6.10;1.00;;;;;;5006704;28;20393;-83
2023/01/17 09:57:55;;;;;;;5.35;0.95;;;6.00;1.00;;;;;;4963169;28;20296;-84
2023/01/17 10:00:45;;;;;;;5.45;1.05;;;6.00;1.00;;;;;;4995176;28;20239;-80
2023/01/17 10:03:52;;;;;;;6.32;1.35;;;5.90;1.00;;;;;;5017648;28;20239;-82
2023/01/17 10:06:31;;;;;;;7.13;1.55;;;6.00;1.00;;;;;;5014376;28;20235;-82
2023/01/17 10:09:22;;;;;;;5.35;1.30;;;6.00;1.00;;;;;;5012580;28;20286;-85
2023/01/17 10:12:00;;;;;;;5.15;0.90;;;6.10;1.00;;;;;;4999581;28;21104;-83
2023/01/17 10:14:44;;;;;;;5.68;1.17;;;6.00;1.00;;;;;;5012600;28;20234;-82
2023/01/17 10:17:21;;;;;;;5.63;1.10;;;6.00;1.00;;;;;;5020964;28;20227;-83
2023/01/17 10:20:04;;;;;;;5.55;1.10;;;6.10;1.00;;;;;;5013014;28;20219;-85
2023/01/17 10:23:02;;;;;;;6.65;1.10;;;6.10;1.00;;;;;;5006208;28;20262;-82
2023/01/17 10:25:41;;;;;;;6.25;1.30;;;6.10;1.00;;;;;;5013884;28;20249;-83
2023/01/17 10:28:16;;;;;;;5.78;1.20;;;6.10;1.00;;;;;;5017693;28;20234;-83
2023/01/17 10:30:49;;;;;;;5.20;0.98;;;6.00;1.00;;;;;;5021395;28;20249;-83
2023/01/17 10:36:26;;;;;;;5.50;1.35;;;5.90;1.00;;;;;;4987105;28;20239;-81
2023/01/17 11:30:28;;;;;;;6.73;1.30;;;5.60;1.00;;;;;;6008136;22;4629437;-83
2023/01/17 11:32:58;;;;;;;6.55;1.40;;;5.50;1.00;;;;;;6188637;22;20436;-83
2023/01/17 11:35:27;;;;;;;6.63;1.17;;;5.40;1.00;;;;;;6206203;22;20209;-86
2023/01/17 11:38:03;;;;;;;6.10;1.45;;;5.30;1.00;;;;;;6202935;22;20753;-83
2023/01/17 11:40:35;;;;;;;6.70;1.20;;;5.30;1.00;;;;;;6201739;23;20342;-82
2023/01/17 11:43:17;;;;;;;7.85;1.50;;;5.00;1.00;;;;;;6210899;22;20248;-82
2023/01/17 11:45:46;;;;;;;6.20;1.42;;;4.90;1.00;;;;;;6232648;22;21095;-82
2023/01/17 11:48:16;;;;;;;8.60;2.35;;;4.70;1.00;;;;;;6204838;22;20264;-83
2023/01/17 11:50:47;;;;;;;9.55;1.45;;;4.50;1.00;;;;;;6203224;22;20217;-83
2023/01/17 11:53:23;;;;;;;6.30;1.30;;;4.40;1.00;;;;;;6205856;22;20686;-81
2023/01/17 11:56:00;;;;;;;6.30;1.27;;;4.30;1.00;;;;;;6202132;22;20916;-82
2023/01/17 11:58:30;;;;;;;6.88;1.77;;;4.10;1.00;;;;;;6204872;22;20224;-83
2023/01/17 12:01:15;;;;;;;7.32;1.90;;;3.80;1.00;;;;;;6202750;23;20210;-84
2023/01/17 12:04:07;;;;;;;7.82;1.90;;;3.70;1.00;;;;;;6203983;23;20338;-80
2023/01/17 12:06:42;;;;;;;5.90;1.50;;;3.80;1.00;;;;;;6202092;22;20914;-80
2023/01/17 12:09:22;;;;;;;7.07;2.10;;;4.00;1.00;;;;;;6232397;22;20866;-82
2023/01/17 12:14:53;;;;;;;6.47;1.45;;;4.60;1.00;;;;;;6232460;22;20291;-81
2023/01/17 12:17:36;;;;;;;9.15;2.20;;;4.70;1.00;;;;;;6232008;22;20212;-82
2023/01/17 12:20:11;;;;;;;7.20;2.13;;;4.80;1.00;;;;;;6216257;22;20302;-83
2023/01/17 12:23:15;;;;;;;6.55;1.70;;;4.90;1.00;;;;;;6201391;22;20213;-81
2023/01/17 12:25:53;;;;;;;7.85;2.65;;;5.30;1.00;;;;;;6198291;22;20216;-82
2023/01/17 12:28:45;;;;;;;7.03;1.80;;;5.70;1.00;;;;;;6202776;23;20209;-82
2023/01/17 12:31:25;;;;;;;7.28;2.20;;;6.30;1.00;;;;;;6204972;23;20725;-84
2023/01/17 12:34:00;;;;;;;7.05;2.83;;;6.70;1.00;;;;;;6195633;22;20222;-84
2023/01/17 12:36:42;;;;;;;7.45;1.85;;;6.40;1.00;;;;;;6199838;22;20265;-82
2023/01/17 12:39:13;;;;;;;6.20;1.95;;;6.10;1.00;;;;;;6204728;22;20793;-81
2023/01/17 12:41:53;;;;;;;7.97;2.33;;;5.70;1.00;;;;;;6194441;22;20238;-82
2023/01/17 12:44:30;;;;;;;7.63;1.95;;;5.60;1.00;;;;;;6193751;23;20204;-82
2023/01/17 12:47:02;;;;;;;6.30;1.48;;;5.50;1.00;;;;;;6194625;22;20202;-81
2023/01/17 12:49:39;;;;;;;6.60;1.75;;;5.30;1.00;;;;;;6195215;22;20268;-81
2023/01/17 12:52:14;;;;;;;6.75;2.00;;;5.20;1.00;;;;;;6223476;23;20193;-82
2023/01/17 12:54:45;;;;;;;8.80;2.33;;;5.20;1.00;;;;;;6226875;22;20260;-82
2023/01/17 12:57:19;;;;;;;5.85;1.60;;;5.30;1.00;;;;;;6234264;23;20213;-81
2023/01/17 12:59:51;;;;;;;6.80;2.70;;;5.30;1.00;;;;;;6230881;22;20214;-82
2023/01/17 13:02:30;;;;;;;6.07;1.50;;;5.20;1.00;;;;;;6228081;22;20742;-83
2023/01/17 13:05:06;;;;;;;7.10;1.65;;;5.20;1.00;;;;;;6226380;22;20260;-82
2023/01/17 13:07:53;;;;;;;6.03;1.48;;;5.10;1.00;;;;;;6227818;22;20240;-84
2023/01/17 13:10:30;;;;;;;6.45;1.50;;;5.00;1.00;;;;;;6225805;22;20217;-83
2023/01/17 13:13:03;;;;;;;6.05;1.60;;;5.00;1.00;;;;;;6228325;23;20213;-81
2023/01/17 13:15:36;;;;;;;6.53;1.58;;;4.90;1.00;;;;;;6226382;22;20193;-82
2023/01/17 13:18:12;;;;;;;9.00;1.75;;;4.90;1.00;;;;;;6210093;22;20197;-81
2023/01/17 13:21:06;;;;;;;6.00;1.70;;;4.90;1.00;;;;;;6196869;22;20277;-82
2023/01/17 13:24:00;;;;;;;10.20;2.10;;;5.10;1.00;;;;;;6194851;23;20220;-82
2023/01/17 13:26:38;;;;;;;6.00;1.60;;;5.30;1.00;;;;;;6213312;22;20209;-83
2023/01/17 13:29:14;;;;;;;7.00;2.30;;;5.40;1.00;;;;;;6227061;23;20213;-82
2023/01/17 13:31:58;;;;;;;9.18;2.08;;;5.60;1.00;;;;;;6233785;22;20213;-87
2023/01/17 13:34:55;;;;;;;7.78;2.60;;;5.70;1.00;;;;;;6231460;23;20267;-81
2023/01/17 13:37:46;;;;;;;8.52;2.85;;;5.60;1.00;;;;;;6224524;22;20244;-82
2023/01/17 13:40:36;;;;;;;5.55;1.60;;;5.70;1.00;;;;;;6214437;23;20243;-82
2023/01/17 13:43:05;;;;;;;7.70;1.90;;;5.60;1.00;;;;;;6220186;22;20209;-82
2023/01/17 13:45:35;;;;;;;6.15;2.00;;;5.50;1.00;;;;;;6235614;22;20285;-81
2023/01/17 13:48:25;;;;;;;6.88;2.20;;;5.30;1.00;;;;;;6229726;22;20209;-82
2023/01/17 13:50:55;;;;;;;8.65;2.65;;;5.30;1.00;;;;;;6242991;22;20217;-81
2023/01/17 13:54:01;;;;;;;7.57;2.45;;;5.30;1.00;;;;;;6235058;22;20214;-81
2023/01/17 13:56:36;;;;;;;9.98;3.80;;;5.40;1.00;;;;;;6223668;22;20203;-82
2023/01/17 14:06:56;;;;;;;8.38;2.20;;;5.50;1.00;;;;;;6211187;22;20198;-82
2023/01/17 14:09:30;;;;;;;8.70;2.35;;;5.50;1.00;;;;;;6198800;22;20300;-83
2023/01/17 14:12:00;;;;;;;8.13;1.58;;;5.50;1.00;;;;;;6196240;23;20218;-81
2023/01/17 14:14:52;;;;;;;8.30;2.17;;;5.50;1.00;;;;;;6197148;23;20292;-82
2023/01/17 14:17:57;;;;;;;9.98;2.00;;;5.40;1.00;;;;;;6198802;22;20266;-82
2023/01/17 14:20:52;;;;;;;9.05;2.47;;;5.30;1.00;;;;;;6191906;22;20756;-82
2023/01/17 14:23:37;;;;;;;6.80;1.70;;;5.30;1.00;;;;;;6209689;22;20206;-82
2023/01/17 14:26:31;;;;;;;7.65;1.63;;;5.30;1.00;;;;;;6199782;23;20214;-83
2023/01/17 14:28:59;;;;;;;5.70;1.58;;;5.30;1.00;;;;;;6199214;22;20686;-83
2023/01/17 14:31:27;;;;;;;6.70;1.88;;;5.20;1.00;;;;;;6200373;22;21062;-81
2023/01/17 14:33:54;;;;;;;6.53;1.70;;;5.20;1.00;;;;;;6204236;22;20222;-81
2023/01/17 14:36:28;;;;;;;6.40;1.60;;;5.20;1.00;;;;;;6204645;22;20271;-82
2023/01/17 14:38:57;;;;;;;7.53;2.10;;;5.10;1.00;;;;;;6196730;23;20228;-82
2023/01/17 14:41:29;;;;;;;9.63;2.40;;;5.10;1.00;;;;;;6186136;22;20226;-82
2023/01/17 14:49:22;;;;;;;11.60;2.85;;;5.20;1.00;;;;;;6202711;22;20216;-82
2023/01/17 14:52:17;;;;;;;8.15;2.30;;;5.30;1.00;;;;;;6187883;23;20222;-83
2023/01/17 14:54:49;;;;;;;8.30;2.55;;;5.30;1.00;;;;;;6181691;22;20201;-82
2023/01/17 14:57:30;;;;;;;7.75;2.28;;;5.40;1.00;;;;;;6214071;23;20213;-81
2023/01/17 15:00:23;;;;;;;9.57;2.90;;;5.40;1.00;;;;;;6185086;22;20222;-82
2023/01/17 15:03:18;;;;;;;6.70;1.98;;;5.40;1.00;;;;;;6198005;22;20216;-82
2023/01/17 15:05:58;;;;;;;8.85;2.10;;;5.40;1.00;;;;;;6192714;23;20209;-82
2023/01/17 15:08:38;;;;;;;10.50;2.40;;;5.50;1.00;;;;;;6180947;22;21071;-82
2023/01/17 15:11:10;;;;;;;8.90;3.10;;;5.50;1.00;;;;;;6194664;23;20210;-81
2023/01/17 15:13:43;;;;;;;8.60;1.98;;;5.50;1.00;;;;;;6213170;22;20314;-83
2023/01/17 15:16:20;;;;;;;7.20;2.50;;;5.50;1.00;;;;;;6200433;23;20241;-82
2023/01/17 15:18:47;;;;;;;6.70;2.05;;;5.50;1.00;;;;;;6199636;22;20206;-82
2023/01/17 15:21:18;;;;;;;8.02;1.95;;;5.30;1.00;;;;;;6201419;22;20200;-81
2023/01/17 15:23:49;;;;;;;8.05;1.90;;;5.10;1.00;;;;;;6198982;23;20698;-81
2023/01/17 15:26:19;;;;;;;9.50;4.25;;;4.90;1.00;;;;;;6191348;22;20248;-83
2023/01/17 15:28:48;;;;;;;17.13;11.25;;;4.70;1.00;;;;;;6210826;22;20233;-80
2023/01/17 15:31:20;;;;;;;10.02;2.97;;;4.50;1.00;;;;;;6196961;23;20218;-81
2023/01/17 15:33:49;;;;;;;9.95;3.17;;;4.40;1.00;;;;;;6196386;23;20222;-83
2023/01/17 15:36:43;;;;;;;7.30;2.33;;;4.20;1.00;;;;;;6194964;23;20214;-79
2023/01/17 15:39:20;;;;;;;7.35;2.10;;;4.10;1.00;;;;;;6194644;23;20221;-81
2023/01/17 15:41:50;;;;;;;8.48;2.83;;;4.10;1.00;;;;;;6193981;23;21024;-79
2023/01/17 15:44:34;;;;;;;11.55;3.50;;;4.00;1.00;;;;;;6194084;23;20930;-79
2023/01/17 15:47:05;;;;;;;8.00;2.63;;;4.00;1.00;;;;;;6182433;23;20198;-79
2023/01/17 15:49:33;;;;;;;7.80;2.58;;;4.00;1.00;;;;;;6193587;22;20213;-80
2023/01/17 15:52:16;;;;;;;9.45;3.95;;;3.90;1.00;;;;;;6194882;23;20244;-79
2023/01/17 15:54:49;;;;;;;10.27;2.63;;;3.90;1.00;;;;;;6192860;22;20245;-80
2023/01/17 15:57:34;;;;;;;9.82;2.72;;;3.90;1.00;;;;;;6191138;23;20214;-79
2023/01/17 16:00:19;;;;;;;9.45;3.60;;;3.90;1.00;;;;;;6195993;22;20209;-79
2023/01/17 16:02:48;;;;;;;7.85;2.65;;;3.90;1.00;;;;;;6196093;23;20541;-80
2023/01/17 16:08:38;;;;;;;8.48;3.53;;;3.90;1.00;;;;;;6198666;23;20286;-81
2023/01/17 16:11:07;;;;;;;11.25;3.47;;;3.80;1.00;;;;;;6194641;23;20198;-83
2023/01/17 16:13:42;;;;;;;11.70;3.67;;;3.80;1.00;;;;;;6183755;22;20292;-82
2023/01/17 16:16:28;;;;;;;10.88;3.50;;;3.90;1.00;;;;;;6196182;22;20210;-80
2023/01/17 16:19:06;;;;;;;8.82;4.00;;;3.80;1.00;;;;;;6178320;22;20218;-80
2023/01/17 16:21:49;;;;;;;9.02;4.15;;;3.80;1.00;;;;;;6178821;22;20243;-84
2023/01/17 16:24:16;;;;;;;9.15;3.90;;;3.70;1.00;;;;;;6204275;22;20213;-81
2023/01/17 16:26:44;;;;;;;7.30;2.95;;;3.80;1.00;;;;;;6211621;23;20917;-80
2023/01/17 16:29:17;;;;;;;9.43;3.60;;;3.70;1.00;;;;;;6183765;23;20197;-80
2023/01/17 16:31:57;;;;;;;7.70;3.17;;;3.70;1.00;;;;;;6160679;23;20319;-83
2023/01/17 16:34:32;;;;;;;11.65;4.55;;;3.60;1.00;;;;;;6179912;23;20273;-80
2023/01/17 16:39:48;;;;;;;9.10;3.67;;;3.50;1.00;;;;;;6179483;22;20214;-80
2023/01/17 16:42:19;;;;;;;11.63;4.13;;;3.50;1.00;;;;;;6186043;23;20292;-80
2023/01/17 16:44:48;;;;;;;11.23;4.15;;;3.50;1.00;;;;;;6184339;23;20206;-83
2023/01/17 16:47:19;;;;;;;10.65;4.20;;;3.50;1.00;;;;;;6194507;23;20214;-79
2023/01/17 16:50:08;;;;;;;10.63;3.83;;;3.50;1.00;;;;;;6169828;23;20244;-79
2023/01/17 16:52:48;;;;;;;12.70;3.90;;;3.40;1.00;;;;;;6103927;23;20211;-82
2023/01/17 16:55:49;;;;;;;10.38;3.80;;;3.40;1.00;;;;;;6136544;23;20214;-81
2023/01/17 16:58:25;;;;;;;11.07;4.30;;;3.40;1.00;;;;;;6145122;23;20215;-81
2023/01/17 17:01:11;;;;;;;;;;;;;;;;;;;;;
2023/01/17 17:04:09;;;;;;;12.90;4.97;;;3.40;1.00;;;;;;6116305;22;39459;-79
2023/01/17 17:06:38;;;;;;;11.43;4.07;;;3.30;1.00;;;;;;6140611;23;20819;-80
2023/01/17 17:09:07;;;;;;;10.30;4.30;;;3.20;1.00;;;;;;6160395;22;20211;-80
2023/01/17 17:11:34;;;;;;;7.35;3.00;;;3.20;1.00;;;;;;6177573;23;20269;-80
2023/01/17 17:14:02;;;;;;;11.63;3.95;;;3.10;1.00;;;;;;6185706;23;20212;-80
2023/01/17 17:16:32;;;;;;;8.93;3.47;;;3.10;1.00;;;;;;6189963;23;20222;-81
2023/01/17 17:19:01;;;;;;;9.80;3.90;;;3.00;1.00;;;;;;6196274;22;20245;-81
2023/01/17 17:21:29;;;;;;;9.82;3.25;;;3.00;1.00;;;;;;6197221;23;20210;-81
2023/01/17 17:23:58;;;;;;;10.00;3.78;;;2.90;1.00;;;;;;6190974;23;20211;-81
2023/01/17 17:26:29;;;;;;;10.07;3.50;;;3.00;1.00;;;;;;6199032;23;20761;-83
2023/01/17 17:28:57;;;;;;;10.82;4.22;;;3.00;1.00;;;;;;6193338;23;20222;-82
2023/01/17 17:31:27;;;;;;;11.75;5.80;;;2.90;1.00;;;;;;6195810;23;20628;-83
2023/01/17 17:33:58;;;;;;;11.82;4.93;;;3.00;1.00;;;;;;6193496;23;20221;-80
2023/01/17 17:36:25;;;;;;;8.30;3.95;;;3.00;1.00;;;;;;6180058;22;20593;-81
2023/01/17 17:38:56;;;;;;;10.38;5.30;;;2.90;1.00;;;;;;6185868;23;20220;-81
2023/01/17 17:41:27;;;;;;;10.10;4.80;;;2.90;1.00;;;;;;6193501;23;20199;-80
2023/01/17 17:43:57;;;;;;;8.30;4.18;;;2.80;1.00;;;;;;6190881;23;20244;-81
2023/01/17 17:46:29;;;;;;;13.23;5.13;;;2.90;1.00;;;;;;6198802;23;21021;-83